Hauptseite
METAR-TAF:

METAR-TAF

Flughäfen :

Flughafen Engadin

St. Moritz, Schweiz

Breite: 46-32-03N, Länge: 9-53-03E, Höhe: 1707 m

Beobachtung

Neuester Wetterbericht von vor 19 Minuten, um 03:50 UTC
Windstille
Temperatur 2°C
Luftfeuchtigkeit 100%
Luftdruck 1023 hPa
Sichtweite: 5000 m

METAR: LSZS 160350Z AUTO 00000KT 5000 NCD 02/02 Q1023

Zeit: 06:09 (04:09 UTC)

Prognose

Neuester Wetterbericht von vor 13 Stunden und 44 Minuten, um 14:25 UTC
Gültige Prognose vom 15 um 15 UTC bis 15 um 24 UTC
Wind 11 kt aus Südwest
Sichtweite 10 km oder mehr
Durchbrochene Bewölkung in der Höhe von 6000 ft
Wahrscheinlichkeit 30% :
Zeitweise
vom 15 um 15 UTC bis 15 um 17 UTC
Wind 12 kt aus Südwest, Böen bis zu 25 kt

TAF: LSZS 151425Z 1515/1524 23011KT 9999 BKN060 TX11/1515Z PROB30 TEMPO 1515/1517 22012G25KT

Wetterbeobachtungen und Prognosen von mehr als 4000 Flughäfen (METAR und TAF Bericht).

Die verfügbaren Stationen werden durch gelbe und rote Markierungen auf der Karte dargestellt.

Führen Sie die Maus auf sie, um den Namen der Station zu sehen.

Darauf klicken, um die Beobachtung von Wetterbeobachtungen und Prognosen zu sehen.

Um die Karte zu ändern : klicken Sie auf den grünen Tasten mit einem schwarzen Kreuz Zum Vergrößern, auf den grünen Button mit einem Gedankenstrich zu verkleinern, oder auf die grünen Pfeile für benachbarte Karten.


METAR-TAF: